Time,TemperatureF,DewpointF,PressureIn,WindDirection,WindDirectionDegrees,WindSpeedMPH,WindSpeedGustMPH,Humidity,HourlyPrecipIn,Conditions,Clouds,dailyrainin,SoftwareType,DateUTC
2013-02-26 00:00:00,32.0,-99.9,-100.00,North,-999,0.0,0.0,-999,-99.99,,,-99.99,,2013-02-26 05:00:00,
2013-02-26 00:22:00,32.0,-99.9,-100.00,North,-999,0.0,0.0,-999,-99.99,,,-99.99,,2013-02-26 05:22:00,
2013-02-26 00:32:00,32.0,-99.9,-100.00,North,-999,0.0,0.0,-999,-99.99,,,-99.99,,2013-02-26 05:32:00,
2013-02-26 00:43:00,32.0,-99.9,-100.00,North,-999,0.0,0.0,-999,-99.99,,,-99.99,,2013-02-26 05:43:00,
2013-02-26 00:52:00,32.0,-99.9,-100.00,North,-999,0.0,0.0,-999,-99.99,,,-99.99,,2013-02-26 05:52:00,
2013-02-26 01:00:00,30.0,-99.9,-100.00,SW,223,2.0,4.0,-999,-99.99,,,-99.99,,2013-02-26 06:00:00,
2013-02-26 01:22:00,30.0,-99.9,-100.00,SW,223,2.0,4.0,-999,-99.99,,,-99.99,,2013-02-26 06:22:00,
2013-02-26 01:32:00,30.0,-99.9,-100.00,SW,223,2.0,4.0,-999,-99.99,,,-99.99,,2013-02-26 06:32:00,
2013-02-26 01:42:00,30.0,-99.9,-100.00,SW,223,2.0,4.0,-999,-99.99,,,-99.99,,2013-02-26 06:42:00,
2013-02-26 01:52:00,30.0,-99.9,-100.00,SW,223,2.0,4.0,-999,-99.99,,,-99.99,,2013-02-26 06:52:00,
2013-02-26 02:00:00,32.0,-99.9,-100.00,SW,224,2.0,4.0,-999,-99.99,,,-99.99,,2013-02-26 07:00:00,
2013-02-26 02:22:00,32.0,-99.9,-100.00,SW,224,2.0,4.0,-999,-99.99,,,-99.99,,2013-02-26 07:22:00,
2013-02-26 02:32:00,32.0,-99.9,-100.00,SW,224,2.0,4.0,-999,-99.99,,,-99.99,,2013-02-26 07:32:00,
2013-02-26 02:42:00,32.0,-99.9,-100.00,SW,224,2.0,4.0,-999,-99.99,,,-99.99,,2013-02-26 07:42:00,
2013-02-26 02:52:00,32.0,-99.9,-100.00,SW,224,2.0,4.0,-999,-99.99,,,-99.99,,2013-02-26 07:52:00,
2013-02-26 03:00:00,31.0,-99.9,-100.00,SSW,211,4.0,4.0,-999,-99.99,,,-99.99,,2013-02-26 08:00:00,
2013-02-26 03:22:00,31.0,-99.9,-100.00,SSW,211,4.0,4.0,-999,-99.99,,,-99.99,,2013-02-26 08:22:00,
2013-02-26 03:32:00,31.0,-99.9,-100.00,SSW,211,4.0,4.0,-999,-99.99,,,-99.99,,2013-02-26 08:32:00,
2013-02-26 03:42:00,31.0,-99.9,-100.00,SSW,211,4.0,4.0,-999,-99.99,,,-99.99,,2013-02-26 08:42:00,
2013-02-26 03:52:00,31.0,-99.9,-100.00,SSW,211,4.0,4.0,-999,-99.99,,,-99.99,,2013-02-26 08:52:00,
2013-02-26 04:00:00,31.0,-99.9,-100.00,SSW,207,5.0,5.0,-999,-99.99,,,-99.99,,2013-02-26 09:00:00,
2013-02-26 04:22:00,31.0,-99.9,-100.00,SSW,207,5.0,5.0,-999,-99.99,,,-99.99,,2013-02-26 09:22:00,
2013-02-26 04:32:00,31.0,-99.9,-100.00,SSW,207,5.0,5.0,-999,-99.99,,,-99.99,,2013-02-26 09:32:00,
2013-02-26 04:43:00,31.0,-99.9,-100.00,SSW,207,5.0,5.0,-999,-99.99,,,-99.99,,2013-02-26 09:43:00,
2013-02-26 04:52:00,31.0,-99.9,-100.00,SSW,207,5.0,5.0,-999,-99.99,,,-99.99,,2013-02-26 09:52:00,
2013-02-26 05:00:00,31.0,-99.9,-100.00,South,188,7.0,8.0,-999,-99.99,,,-99.99,,2013-02-26 10:00:00,
2013-02-26 05:22:00,31.0,-99.9,-100.00,South,188,7.0,8.0,-999,-99.99,,,-99.99,,2013-02-26 10:22:00,
2013-02-26 05:32:00,31.0,-99.9,-100.00,South,188,7.0,8.0,-999,-99.99,,,-99.99,,2013-02-26 10:32:00,
2013-02-26 05:42:00,31.0,-99.9,-100.00,South,188,7.0,8.0,-999,-99.99,,,-99.99,,2013-02-26 10:42:00,
2013-02-26 05:52:00,31.0,-99.9,-100.00,South,188,7.0,8.0,-999,-99.99,,,-99.99,,2013-02-26 10:52:00,
2013-02-26 06:00:00,31.0,-99.9,-100.00,South,180,10.0,11.0,-999,-99.99,,,-99.99,,2013-02-26 11:00:00,
2013-02-26 06:22:00,31.0,-99.9,-100.00,South,180,10.0,11.0,-999,-99.99,,,-99.99,,2013-02-26 11:22:00,
2013-02-26 06:32:00,31.0,-99.9,-100.00,South,180,10.0,11.0,-999,-99.99,,,-99.99,,2013-02-26 11:32:00,
2013-02-26 06:42:00,31.0,-99.9,-100.00,South,180,10.0,11.0,-999,-99.99,,,-99.99,,2013-02-26 11:42:00,
2013-02-26 06:53:00,31.0,-99.9,-100.00,South,180,10.0,11.0,-999,-99.99,,,-99.99,,2013-02-26 11:53:00,
2013-02-26 07:00:00,31.0,-99.9,-100.00,SSE,161,11.0,14.0,-999,-99.99,,,-99.99,,2013-02-26 12:00:00,
2013-02-26 07:22:00,31.0,-99.9,-100.00,SSE,161,11.0,14.0,-999,-99.99,,,-99.99,,2013-02-26 12:22:00,
2013-02-26 07:33:00,31.0,-99.9,-100.00,SSE,161,11.0,14.0,-999,-99.99,,,-99.99,,2013-02-26 12:33:00,
2013-02-26 07:42:00,31.0,-99.9,-100.00,SSE,161,11.0,14.0,-999,-99.99,,,-99.99,,2013-02-26 12:42:00,
2013-02-26 07:53:00,31.0,-99.9,-100.00,SSE,161,11.0,14.0,-999,-99.99,,,-99.99,,2013-02-26 12:53:00,
2013-02-26 08:00:00,31.0,-99.9,-100.00,SSE,152,12.0,13.0,-999,-99.99,,,-99.99,,2013-02-26 13:00:00,
2013-02-26 08:22:00,31.0,-99.9,-100.00,SSE,152,12.0,13.0,-999,-99.99,,,-99.99,,2013-02-26 13:22:00,
2013-02-26 08:32:00,31.0,-99.9,-100.00,SSE,152,12.0,13.0,-999,-99.99,,,-99.99,,2013-02-26 13:32:00,
2013-02-26 08:42:00,31.0,-99.9,-100.00,SSE,152,12.0,13.0,-999,-99.99,,,-99.99,,2013-02-26 13:42:00,
2013-02-26 08:52:00,31.0,-99.9,-100.00,SSE,152,12.0,13.0,-999,-99.99,,,-99.99,,2013-02-26 13:52:00,
2013-02-26 09:00:00,33.0,-99.9,-100.00,SSE,165,14.0,17.0,-999,-99.99,,,-99.99,,2013-02-26 14:00:00,
2013-02-26 09:22:00,33.0,-99.9,-100.00,SSE,165,14.0,17.0,-999,-99.99,,,-99.99,,2013-02-26 14:22:00,
2013-02-26 09:32:00,33.0,-99.9,-100.00,SSE,165,14.0,17.0,-999,-99.99,,,-99.99,,2013-02-26 14:32:00,
2013-02-26 09:42:00,33.0,-99.9,-100.00,SSE,165,14.0,17.0,-999,-99.99,,,-99.99,,2013-02-26 14:42:00,
2013-02-26 09:52:00,33.0,-99.9,-100.00,SSE,165,14.0,17.0,-999,-99.99,,,-99.99,,2013-02-26 14:52:00,
2013-02-26 10:00:00,35.0,-99.9,-100.00,SSE,156,12.0,14.0,-999,-99.99,,,-99.99,,2013-02-26 15:00:00,
2013-02-26 10:22:00,35.0,-99.9,-100.00,SSE,156,12.0,14.0,-999,-99.99,,,-99.99,,2013-02-26 15:22:00,
2013-02-26 10:32:00,35.0,-99.9,-100.00,SSE,156,12.0,14.0,-999,-99.99,,,-99.99,,2013-02-26 15:32:00,
2013-02-26 10:42:00,35.0,-99.9,-100.00,SSE,156,12.0,14.0,-999,-99.99,,,-99.99,,2013-02-26 15:42:00,
2013-02-26 10:52:00,35.0,-99.9,-100.00,SSE,156,12.0,14.0,-999,-99.99,,,-99.99,,2013-02-26 15:52:00,
2013-02-26 11:00:00,37.0,-99.9,-100.00,SE,134,11.0,13.0,-999,-99.99,,,-99.99,,2013-02-26 16:00:00,
2013-02-26 11:22:00,37.0,-99.9,-100.00,SE,134,11.0,13.0,-999,-99.99,,,-99.99,,2013-02-26 16:22:00,
2013-02-26 11:32:00,37.0,-99.9,-100.00,SE,134,11.0,13.0,-999,-99.99,,,-99.99,,2013-02-26 16:32:00,
2013-02-26 11:42:00,37.0,-99.9,-100.00,SE,134,11.0,13.0,-999,-99.99,,,-99.99,,2013-02-26 16:42:00,
2013-02-26 11:52:00,37.0,-99.9,-100.00,SE,134,11.0,13.0,-999,-99.99,,,-99.99,,2013-02-26 16:52:00,
2013-02-26 12:00:00,38.0,-99.9,-100.00,SE,137,12.0,17.0,-999,-99.99,,,-99.99,,2013-02-26 17:00:00,
2013-02-26 12:22:00,38.0,-99.9,-100.00,SE,137,12.0,17.0,-999,-99.99,,,-99.99,,2013-02-26 17:22:00,
2013-02-26 12:32:00,38.0,-99.9,-100.00,SE,137,12.0,17.0,-999,-99.99,,,-99.99,,2013-02-26 17:32:00,
2013-02-26 12:42:00,38.0,-99.9,-100.00,SE,137,12.0,17.0,-999,-99.99,,,-99.99,,2013-02-26 17:42:00,
2013-02-26 12:52:00,38.0,-99.9,-100.00,SE,137,12.0,17.0,-999,-99.99,,,-99.99,,2013-02-26 17:52:00,
2013-02-26 13:00:00,40.0,-99.9,-100.00,SSE,152,19.0,25.0,-999,-99.99,,,-99.99,,2013-02-26 18:00:00,
2013-02-26 13:22:00,40.0,-99.9,-100.00,SSE,152,19.0,25.0,-999,-99.99,,,-99.99,,2013-02-26 18:22:00,
2013-02-26 13:32:00,40.0,-99.9,-100.00,SSE,152,19.0,25.0,-999,-99.99,,,-99.99,,2013-02-26 18:32:00,
2013-02-26 13:42:00,40.0,-99.9,-100.00,SSE,152,19.0,25.0,-999,-99.99,,,-99.99,,2013-02-26 18:42:00,
2013-02-26 13:53:00,40.0,-99.9,-100.00,SSE,152,19.0,25.0,-999,-99.99,,,-99.99,,2013-02-26 18:53:00,
2013-02-26 14:00:00,40.0,-99.9,-100.00,SSE,147,16.0,18.0,-999,-99.99,,,-99.99,,2013-02-26 19:00:00,
2013-02-26 14:22:00,40.0,-99.9,-100.00,SSE,147,16.0,18.0,-999,-99.99,,,-99.99,,2013-02-26 19:22:00,
2013-02-26 14:32:00,40.0,-99.9,-100.00,SSE,147,16.0,18.0,-999,-99.99,,,-99.99,,2013-02-26 19:32:00,
2013-02-26 14:42:00,40.0,-99.9,-100.00,SSE,147,16.0,18.0,-999,-99.99,,,-99.99,,2013-02-26 19:42:00,
2013-02-26 14:52:00,40.0,-99.9,-100.00,SSE,147,16.0,18.0,-999,-99.99,,,-99.99,,2013-02-26 19:52:00,
2013-02-26 15:00:00,41.0,-99.9,-100.00,SSE,158,21.0,27.0,-999,-99.99,,,-99.99,,2013-02-26 20:00:00,
2013-02-26 15:22:00,41.0,-99.9,-100.00,SSE,158,21.0,27.0,-999,-99.99,,,-99.99,,2013-02-26 20:22:00,
2013-02-26 15:32:00,41.0,-99.9,-100.00,SSE,158,21.0,27.0,-999,-99.99,,,-99.99,,2013-02-26 20:32:00,
2013-02-26 15:42:00,41.0,-99.9,-100.00,SSE,158,21.0,27.0,-999,-99.99,,,-99.99,,2013-02-26 20:42:00,
2013-02-26 15:52:00,41.0,-99.9,-100.00,SSE,158,21.0,27.0,-999,-99.99,,,-99.99,,2013-02-26 20:52:00,
2013-02-26 16:00:00,41.0,-99.9,-100.00,SSE,154,16.0,26.0,-999,-99.99,,,-99.99,,2013-02-26 21:00:00,
2013-02-26 16:21:00,41.0,-99.9,-100.00,SSE,154,16.0,26.0,-999,-99.99,,,-99.99,,2013-02-26 21:21:00,
2013-02-26 16:31:00,41.0,-99.9,-100.00,SSE,154,16.0,26.0,-999,-99.99,,,-99.99,,2013-02-26 21:31:00,
2013-02-26 16:41:00,41.0,-99.9,-100.00,SSE,154,16.0,26.0,-999,-99.99,,,-99.99,,2013-02-26 21:41:00,
2013-02-26 16:51:00,41.0,-99.9,-100.00,SSE,154,16.0,26.0,-999,-99.99,,,-99.99,,2013-02-26 21:51:00,
2013-02-26 17:00:00,41.0,-99.9,-100.00,SE,140,20.0,23.0,-999,-99.99,,,-99.99,,2013-02-26 22:00:00,
2013-02-26 17:22:00,41.0,-99.9,-100.00,SE,140,20.0,23.0,-999,-99.99,,,-99.99,,2013-02-26 22:22:00,
2013-02-26 17:32:00,41.0,-99.9,-100.00,SE,140,20.0,23.0,-999,-99.99,,,-99.99,,2013-02-26 22:32:00,
2013-02-26 17:42:00,41.0,-99.9,-100.00,SE,140,20.0,23.0,-999,-99.99,,,-99.99,,2013-02-26 22:42:00,
2013-02-26 17:52:00,41.0,-99.9,-100.00,SE,140,20.0,23.0,-999,-99.99,,,-99.99,,2013-02-26 22:52:00,
2013-02-26 18:00:00,41.0,-99.9,-100.00,SSE,155,16.0,21.0,-999,-99.99,,,-99.99,,2013-02-26 23:00:00,
2013-02-26 18:21:00,41.0,-99.9,-100.00,SSE,155,16.0,21.0,-999,-99.99,,,-99.99,,2013-02-26 23:21:00,
2013-02-26 18:32:00,41.0,-99.9,-100.00,SSE,155,16.0,21.0,-999,-99.99,,,-99.99,,2013-02-26 23:32:00,
2013-02-26 18:42:00,41.0,-99.9,-100.00,SSE,155,16.0,21.0,-999,-99.99,,,-99.99,,2013-02-26 23:42:00,
2013-02-26 18:52:00,41.0,-99.9,-100.00,SSE,155,16.0,21.0,-999,-99.99,,,-99.99,,2013-02-26 23:52:00,
2013-02-26 19:00:00,41.0,-99.9,-100.00,SE,146,19.0,23.0,-999,-99.99,,,-99.99,,2013-02-27 00:00:00,
2013-02-26 19:22:00,41.0,-99.9,-100.00,SE,146,19.0,23.0,-999,-99.99,,,-99.99,,2013-02-27 00:22:00,
2013-02-26 19:32:00,41.0,-99.9,-100.00,SE,146,19.0,23.0,-999,-99.99,,,-99.99,,2013-02-27 00:32:00,
2013-02-26 19:42:00,41.0,-99.9,-100.00,SE,146,19.0,23.0,-999,-99.99,,,-99.99,,2013-02-27 00:42:00,
2013-02-26 19:52:00,41.0,-99.9,-100.00,SE,146,19.0,23.0,-999,-99.99,,,-99.99,,2013-02-27 00:52:00,
2013-02-26 20:00:00,40.0,-99.9,-100.00,SSE,161,28.0,34.0,-999,-99.99,,,-99.99,,2013-02-27 01:00:00,
2013-02-26 20:22:00,40.0,-99.9,-100.00,SSE,161,28.0,34.0,-999,-99.99,,,-99.99,,2013-02-27 01:22:00,
2013-02-26 20:32:00,40.0,-99.9,-100.00,SSE,161,28.0,34.0,-999,-99.99,,,-99.99,,2013-02-27 01:32:00,
2013-02-26 20:42:00,40.0,-99.9,-100.00,SSE,161,28.0,34.0,-999,-99.99,,,-99.99,,2013-02-27 01:42:00,
2013-02-26 20:52:00,40.0,-99.9,-100.00,SSE,161,28.0,34.0,-999,-99.99,,,-99.99,,2013-02-27 01:52:00,
2013-02-26 21:00:00,36.0,-99.9,-100.00,SSE,154,18.0,23.0,-999,-99.99,,,-99.99,,2013-02-27 02:00:00,
2013-02-26 21:32:00,36.0,-99.9,-100.00,SSE,154,18.0,23.0,-999,-99.99,,,-99.99,,2013-02-27 02:32:00,
2013-02-26 21:42:00,36.0,-99.9,-100.00,SSE,154,18.0,23.0,-999,-99.99,,,-99.99,,2013-02-27 02:42:00,
2013-02-26 21:52:00,36.0,-99.9,-100.00,SSE,154,18.0,23.0,-999,-99.99,,,-99.99,,2013-02-27 02:52:00,